Time;durP1;ratioP1;P1;durP2;ratioP2;P2;SDS_P1;SDS_P2;PMS_P1;PMS_P2;Temp;Humidity;BMP_temperature;BMP_pressure;BME280_temperature;BME280_humidity;BME280_pressure;Samples;Min_cycle;Max_cycle;Signal;HPM_P1;HPM_P2
2024/03/07 00:02:06;;;;;;;27.90;16.50;;;;;;;;;;107095;1253;61109;-82
2024/03/07 00:04:32;;;;;;;23.60;16.30;;;;;;;;;;107092;1253;61222;-82
2024/03/07 00:06:59;;;;;;;35.30;24.10;;;;;;;;;;107051;1254;61310;-81
2024/03/07 00:09:25;;;;;;;22.40;14.20;;;;;;;;;;107073;1254;62391;-81
2024/03/07 00:11:52;;;;;;;20.80;14.70;;;;;;;;;;107034;1256;61263;-81
2024/03/07 00:14:20;;;;;;;30.80;19.00;;;;;;;;;;107102;1253;61346;-81
2024/03/07 00:16:47;;;;;;;21.40;12.80;;;;;;;;;;107092;1252;61224;-81
2024/03/07 00:19:14;;;;;;;18.70;11.40;;;;;;;;;;106958;1253;61264;-83
2024/03/07 00:21:41;;;;;;;20.00;11.30;;;;;;;;;;107095;1254;61258;-81
2024/03/07 00:24:08;;;;;;;17.50;10.30;;;;;;;;;;107104;1252;61219;-81
2024/03/07 00:26:34;;;;;;;40.60;27.90;;;;;;;;;;107119;1254;61327;-81
2024/03/07 00:29:01;;;;;;;31.10;19.90;;;;;;;;;;107086;1254;61352;-81
2024/03/07 00:31:29;;;;;;;24.40;14.60;;;;;;;;;;106950;1253;61179;-81
2024/03/07 00:33:56;;;;;;;21.00;11.70;;;;;;;;;;107088;1254;61233;-82
2024/03/07 00:36:23;;;;;;;54.30;39.10;;;;;;;;;;107078;1251;61343;-82
2024/03/07 00:38:49;;;;;;;24.50;17.40;;;;;;;;;;107202;1251;60218;-81
2024/03/07 00:41:17;;;;;;;30.30;23.00;;;;;;;;;;107125;1256;59623;-82
2024/03/07 00:43:43;;;;;;;21.40;12.10;;;;;;;;;;107094;1254;61365;-81
2024/03/07 00:46:10;;;;;;;32.80;22.20;;;;;;;;;;107180;1254;61157;-81
2024/03/07 00:48:37;;;;;;;23.70;15.20;;;;;;;;;;107187;1254;61198;-81
2024/03/07 00:51:04;;;;;;;22.10;12.70;;;;;;;;;;107244;1251;61269;-81
2024/03/07 00:53:30;;;;;;;22.50;12.40;;;;;;;;;;107141;1256;59211;-82
2024/03/07 00:55:57;;;;;;;34.40;21.90;;;;;;;;;;106927;1259;61096;-81
2024/03/07 00:58:23;;;;;;;23.40;13.60;;;;;;;;;;107026;1256;60771;-81
2024/03/07 01:00:50;;;;;;;25.40;15.80;;;;;;;;;;107166;1253;61134;-81
2024/03/07 01:03:17;;;;;;;22.70;12.20;;;;;;;;;;107065;1258;61107;-81
2024/03/07 01:05:44;;;;;;;20.10;12.10;;;;;;;;;;107123;1256;60250;-81
2024/03/07 01:08:10;;;;;;;24.70;15.80;;;;;;;;;;107098;1253;61263;-81
2024/03/07 01:10:37;;;;;;;24.20;17.60;;;;;;;;;;107104;1253;59790;-82
2024/03/07 01:13:05;;;;;;;21.80;14.30;;;;;;;;;;107086;1254;61234;-81
2024/03/07 01:15:32;;;;;;;19.80;11.90;;;;;;;;;;107100;1256;61213;-81
2024/03/07 01:17:58;;;;;;;22.30;14.20;;;;;;;;;;107097;1254;61224;-81
2024/03/07 01:20:25;;;;;;;23.90;13.30;;;;;;;;;;107073;1256;61212;-81
2024/03/07 01:22:51;;;;;;;18.60;12.30;;;;;;;;;;107139;1253;61198;-81
2024/03/07 01:25:18;;;;;;;21.80;13.80;;;;;;;;;;107078;1253;61930;-81
2024/03/07 01:27:44;;;;;;;33.50;24.20;;;;;;;;;;106961;1259;61328;-81
2024/03/07 01:30:11;;;;;;;18.10;11.60;;;;;;;;;;107036;1253;61170;-81
2024/03/07 01:32:37;;;;;;;28.90;20.40;;;;;;;;;;107107;1254;61178;-81
2024/03/07 01:35:06;;;;;;;20.10;11.10;;;;;;;;;;107127;1253;61384;-81
2024/03/07 01:37:33;;;;;;;;;;;;;;;;;;107159;1257;61063;-82
2024/03/07 01:39:59;;;;;;;16.90;9.90;;;;;;;;;;108478;1253;60633;-82
2024/03/07 01:42:25;;;;;;;17.10;11.70;;;;;;;;;;109499;1253;59135;-82
2024/03/07 01:44:52;;;;;;;23.90;15.80;;;;;;;;;;107365;1254;61262;-82
2024/03/07 01:47:18;;;;;;;24.10;16.80;;;;;;;;;;107289;1256;61952;-81
2024/03/07 01:49:44;;;;;;;17.00;12.00;;;;;;;;;;107006;1258;61405;-83
2024/03/07 01:52:11;;;;;;;15.90;10.00;;;;;;;;;;107185;1256;61156;-82
2024/03/07 01:54:37;;;;;;;16.60;10.20;;;;;;;;;;107191;1253;61189;-81
2024/03/07 01:57:04;;;;;;;17.60;10.80;;;;;;;;;;107059;1254;61314;-82
2024/03/07 01:59:32;;;;;;;25.50;16.90;;;;;;;;;;107143;1256;61345;-81
2024/03/07 02:01:58;;;;;;;18.00;11.80;;;;;;;;;;107136;1253;61739;-82
2024/03/07 02:04:25;;;;;;;18.30;11.00;;;;;;;;;;107045;1259;61229;-82
2024/03/07 02:06:53;;;;;;;21.90;11.50;;;;;;;;;;107149;1257;61217;-81
2024/03/07 02:09:20;;;;;;;22.30;11.00;;;;;;;;;;106953;1259;62021;-81
2024/03/07 02:11:49;;;;;;;29.70;19.90;;;;;;;;;;107040;1257;61422;-81
2024/03/07 02:14:16;;;;;;;21.60;13.30;;;;;;;;;;107115;1256;61227;-82
2024/03/07 02:16:43;;;;;;;18.90;11.70;;;;;;;;;;107065;1254;63130;-81
2024/03/07 02:19:13;;;;;;;27.70;17.90;;;;;;;;;;107115;1256;62581;-81
2024/03/07 02:21:40;;;;;;;30.90;20.70;;;;;;;;;;107076;1256;62480;-81
2024/03/07 02:24:06;;;;;;;26.40;17.50;;;;;;;;;;107068;1256;61510;-81
2024/03/07 02:26:33;;;;;;;38.00;29.20;;;;;;;;;;107032;1260;61417;-81
2024/03/07 02:28:59;;;;;;;26.00;17.20;;;;;;;;;;106847;1257;61281;-81
2024/03/07 02:31:34;;;;;;;20.80;13.20;;;;;;;;;;106936;1257;61330;-81
2024/03/07 02:34:02;;;;;;;23.30;14.40;;;;;;;;;;107129;1252;61960;-81
2024/03/07 02:36:29;;;;;;;38.50;26.20;;;;;;;;;;107182;1254;61154;-77
2024/03/07 02:38:55;;;;;;;22.80;15.00;;;;;;;;;;106512;1257;61228;-79
2024/03/07 02:41:22;;;;;;;32.50;20.70;;;;;;;;;;106383;1256;61256;-78
2024/03/07 02:43:48;;;;;;;19.20;11.20;;;;;;;;;;106461;1266;61314;-75
2024/03/07 02:46:14;;;;;;;47.60;35.40;;;;;;;;;;106459;1256;61276;-75
2024/03/07 02:48:41;;;;;;;46.40;33.30;;;;;;;;;;106472;1254;61377;-77
2024/03/07 02:51:07;;;;;;;34.00;21.30;;;;;;;;;;106461;1255;61358;-77
2024/03/07 02:53:34;;;;;;;27.40;16.70;;;;;;;;;;106470;1258;61298;-78
2024/03/07 02:56:00;;;;;;;27.20;14.90;;;;;;;;;;106500;1256;61243;-77
2024/03/07 02:58:27;;;;;;;25.60;15.60;;;;;;;;;;106312;1259;61327;-78
2024/03/07 03:00:56;;;;;;;25.80;14.40;;;;;;;;;;106446;1254;61228;-78
2024/03/07 03:03:23;;;;;;;31.60;20.90;;;;;;;;;;106545;1256;61218;-78
2024/03/07 03:05:49;;;;;;;30.00;16.70;;;;;;;;;;107249;1256;61244;-80
2024/03/07 03:08:16;;;;;;;41.10;27.70;;;;;;;;;;107290;1257;61157;-79
2024/03/07 03:10:42;;;;;;;31.30;17.00;;;;;;;;;;106517;1257;62185;-78
2024/03/07 03:13:08;;;;;;;32.70;17.30;;;;;;;;;;106361;1260;61336;-77
2024/03/07 03:15:35;;;;;;;33.40;18.90;;;;;;;;;;106492;1257;61266;-75
2024/03/07 03:18:02;;;;;;;30.60;18.30;;;;;;;;;;106468;1256;61323;-75
2024/03/07 03:20:38;;;;;;;33.60;22.30;;;;;;;;;;106508;1256;61125;-74
2024/03/07 03:23:13;;;;;;;30.10;15.40;;;;;;;;;;106452;1257;63094;-74
2024/03/07 03:25:40;;;;;;;27.50;17.50;;;;;;;;;;106470;1257;62233;-74
2024/03/07 03:28:09;;;;;;;31.30;17.80;;;;;;;;;;106458;1254;61359;-74
2024/03/07 03:30:38;;;;;;;31.70;18.90;;;;;;;;;;106509;1254;61259;-74
2024/03/07 03:33:08;;;;;;;27.60;16.90;;;;;;;;;;106313;1260;59168;-73
2024/03/07 03:35:34;;;;;;;31.80;18.00;;;;;;;;;;106444;1257;61892;-73
2024/03/07 03:38:01;;;;;;;36.50;18.20;;;;;;;;;;106440;1257;61225;-74
2024/03/07 03:40:27;;;;;;;26.90;15.10;;;;;;;;;;106494;1257;61132;-74
2024/03/07 03:42:54;;;;;;;28.00;15.10;;;;;;;;;;106497;1255;61466;-74
2024/03/07 03:45:20;;;;;;;30.10;16.90;;;;;;;;;;106489;1254;61231;-74
2024/03/07 03:47:47;;;;;;;30.00;16.60;;;;;;;;;;106480;1255;61342;-74
2024/03/07 03:50:14;;;;;;;29.10;15.30;;;;;;;;;;106462;1256;61279;-74
2024/03/07 03:52:40;;;;;;;27.50;15.40;;;;;;;;;;106773;1255;61366;-75
2024/03/07 03:55:09;;;;;;;30.30;16.70;;;;;;;;;;106717;1257;61269;-77
2024/03/07 03:57:35;;;;;;;;;;;;;;;;;;106616;1256;61122;-77
2024/03/07 04:00:09;;;;;;;27.90;13.70;;;;;;;;;;106579;1254;61275;-77
2024/03/07 04:02:38;;;;;;;33.40;17.70;;;;;;;;;;106491;1256;61413;-77
2024/03/07 04:05:05;;;;;;;;;;;;;;;;;;106636;1253;60096;-84
2024/03/07 04:07:31;;;;;;;46.00;29.80;;;;;;;;;;107180;1253;61339;-75
2024/03/07 04:10:06;;;;;;;36.50;19.70;;;;;;;;;;106578;1254;62025;-75
2024/03/07 04:12:33;;;;;;;33.30;17.60;;;;;;;;;;106568;1257;61729;-73
2024/03/07 04:15:01;;;;;;;40.10;23.30;;;;;;;;;;106569;1254;61233;-73
2024/03/07 04:17:27;;;;;;;37.70;20.30;;;;;;;;;;106489;1254;62054;-74
2024/03/07 04:19:53;;;;;;;48.50;30.70;;;;;;;;;;106486;1257;62239;-74
2024/03/07 04:22:20;;;;;;;36.20;21.10;;;;;;;;;;106493;1258;61324;-74
2024/03/07 04:24:48;;;;;;;35.60;18.70;;;;;;;;;;106467;1254;61239;-72
2024/03/07 04:27:14;;;;;;;37.20;20.90;;;;;;;;;;106487;1254;61225;-77
2024/03/07 04:29:42;;;;;;;50.70;26.70;;;;;;;;;;106458;1254;61640;-74
2024/03/07 04:32:09;;;;;;;46.40;23.90;;;;;;;;;;108715;1253;59359;-74
2024/03/07 04:34:36;;;;;;;41.70;21.60;;;;;;;;;;109444;1254;58994;-75
2024/03/07 04:37:06;;;;;;;32.30;17.80;;;;;;;;;;109479;1253;61933;-74
2024/03/07 04:39:32;;;;;;;31.10;17.50;;;;;;;;;;109427;1252;58901;-75
2024/03/07 04:42:00;;;;;;;36.00;19.50;;;;;;;;;;108210;1254;61160;-75
2024/03/07 04:44:29;;;;;;;37.60;18.30;;;;;;;;;;106484;1254;61107;-75
2024/03/07 04:46:56;;;;;;;30.00;15.20;;;;;;;;;;106571;1254;61154;-76
2024/03/07 04:49:23;;;;;;;32.40;16.70;;;;;;;;;;106514;1254;62569;-74
2024/03/07 04:51:53;;;;;;;29.60;15.40;;;;;;;;;;109411;1252;59711;-75
2024/03/07 04:54:19;;;;;;;32.10;15.40;;;;;;;;;;109280;1253;59761;-75
2024/03/07 04:56:46;;;;;;;32.90;17.70;;;;;;;;;;109452;1253;59572;-75
2024/03/07 04:59:13;;;;;;;27.80;15.40;;;;;;;;;;109442;1255;58907;-74
2024/03/07 05:01:42;;;;;;;32.70;16.00;;;;;;;;;;109306;1254;59693;-75
2024/03/07 05:04:09;;;;;;;32.20;15.50;;;;;;;;;;109473;1254;58972;-74
2024/03/07 05:06:35;;;;;;;32.50;16.50;;;;;;;;;;109415;1254;59220;-75
2024/03/07 05:09:02;;;;;;;29.70;16.20;;;;;;;;;;109410;1254;59145;-74
2024/03/07 05:11:32;;;;;;;31.00;17.20;;;;;;;;;;109450;1253;59669;-74
2024/03/07 05:13:59;;;;;;;36.50;17.50;;;;;;;;;;109290;1253;62915;-74
2024/03/07 05:16:26;;;;;;;38.60;17.90;;;;;;;;;;109434;1253;60052;-74
2024/03/07 05:18:52;;;;;;;46.40;22.40;;;;;;;;;;109408;1254;60694;-75
2024/03/07 05:21:37;;;;;;;37.00;17.40;;;;;;;;;;109449;1253;59220;-74
2024/03/07 05:24:04;;;;;;;38.00;19.00;;;;;;;;;;109479;1254;59228;-74
2024/03/07 05:26:40;;;;;;;40.50;19.70;;;;;;;;;;109440;1254;62813;-75
2024/03/07 05:29:10;;;;;;;35.40;16.50;;;;;;;;;;109447;1252;59397;-76
2024/03/07 05:31:37;;;;;;;34.80;17.30;;;;;;;;;;109454;1253;59684;-75
2024/03/07 05:34:09;;;;;;;38.20;17.50;;;;;;;;;;109437;1253;59139;-74
2024/03/07 05:36:35;;;;;;;33.30;17.80;;;;;;;;;;109440;1254;58924;-76
2024/03/07 05:39:10;;;;;;;37.40;16.80;;;;;;;;;;109464;1253;59120;-75
2024/03/07 05:41:37;;;;;;;41.50;18.90;;;;;;;;;;109452;1254;58985;-75
2024/03/07 05:44:08;;;;;;;37.70;19.10;;;;;;;;;;109000;1254;61261;-75
2024/03/07 05:46:41;;;;;;;37.30;17.80;;;;;;;;;;109259;1253;218132;-75
2024/03/07 05:49:08;;;;;;;37.10;17.40;;;;;;;;;;109417;1254;58953;-76
2024/03/07 05:51:35;;;;;;;45.60;20.90;;;;;;;;;;109489;1252;62872;-77
2024/03/07 05:54:02;;;;;;;28.00;14.10;;;;;;;;;;109456;1254;59356;-77
2024/03/07 05:56:29;;;;;;;34.00;18.90;;;;;;;;;;109396;1253;58919;-77
2024/03/07 05:58:56;;;;;;;33.10;17.30;;;;;;;;;;109440;1254;59095;-78
2024/03/07 06:01:25;;;;;;;41.90;19.80;;;;;;;;;;109413;1254;59051;-78
2024/03/07 06:03:51;;;;;;;32.90;17.60;;;;;;;;;;108858;1254;61260;-77
2024/03/07 06:06:18;;;;;;;34.00;17.10;;;;;;;;;;106402;1257;61336;-77
2024/03/07 06:08:45;;;;;;;35.80;17.00;;;;;;;;;;106663;1253;61157;-78
2024/03/07 06:11:19;;;;;;;32.10;16.90;;;;;;;;;;106352;1255;61328;-80
2024/03/07 06:13:46;;;;;;;30.10;14.10;;;;;;;;;;107311;1253;62274;-84
2024/03/07 06:16:14;;;;;;;46.80;23.20;;;;;;;;;;107408;1251;61206;-87
2024/03/07 06:18:41;;;;;;;28.20;16.30;;;;;;;;;;107239;1251;62286;-86
2024/03/07 06:21:08;;;;;;;36.60;18.70;;;;;;;;;;107133;1251;61393;-79
2024/03/07 06:23:34;;;;;;;36.30;18.10;;;;;;;;;;107143;1257;60903;-87
2024/03/07 06:26:01;;;;;;;28.70;16.90;;;;;;;;;;109466;1253;59042;-85
2024/03/07 06:28:30;;;;;;;39.30;19.40;;;;;;;;;;109480;1251;58871;-84
2024/03/07 06:30:56;;;;;;;36.80;17.40;;;;;;;;;;109346;1253;59119;-77
2024/03/07 06:33:23;;;;;;;42.50;20.60;;;;;;;;;;109291;1253;59097;-84
2024/03/07 06:35:50;;;;;;;47.30;19.70;;;;;;;;;;109480;1253;59181;-77
2024/03/07 06:38:17;;;;;;;48.80;23.90;;;;;;;;;;109365;1251;58833;-77
2024/03/07 06:40:44;;;;;;;35.40;15.40;;;;;;;;;;109483;1251;60691;-77
2024/03/07 06:43:11;;;;;;;50.50;22.80;;;;;;;;;;109252;1253;59309;-84
2024/03/07 06:45:38;;;;;;;56.80;24.60;;;;;;;;;;107324;1254;61087;-86
2024/03/07 06:48:06;;;;;;;48.30;23.50;;;;;;;;;;107138;1254;61185;-79
2024/03/07 06:50:33;;;;;;;43.00;22.70;;;;;;;;;;107199;1252;61026;-79
2024/03/07 06:53:00;;;;;;;44.30;18.70;;;;;;;;;;106674;1256;61903;-86
2024/03/07 06:55:27;;;;;;;48.70;22.10;;;;;;;;;;106957;1254;61179;-78
2024/03/07 06:57:54;;;;;;;50.30;23.70;;;;;;;;;;106561;1254;61305;-85
2024/03/07 07:00:20;;;;;;;50.40;23.30;;;;;;;;;;107076;1254;62214;-79
2024/03/07 07:02:47;;;;;;;44.40;22.90;;;;;;;;;;106482;1253;61225;-86
2024/03/07 07:05:18;;;;;;;42.80;21.60;;;;;;;;;;107321;1257;61990;-85
2024/03/07 07:07:44;;;;;;;55.80;25.20;;;;;;;;;;107138;1254;61310;-86
2024/03/07 07:10:23;;;;;;;53.50;26.10;;;;;;;;;;107241;1254;61888;-78
2024/03/07 07:12:49;;;;;;;;;;;;;;;;;;107177;1251;61020;-85
2024/03/07 07:15:16;;;;;;;58.10;25.80;;;;;;;;;;107568;1253;61353;-85
2024/03/07 07:17:45;;;;;;;47.80;21.20;;;;;;;;;;107685;1254;62278;-78
2024/03/07 07:20:14;;;;;;;111.10;53.00;;;;;;;;;;106666;1256;61244;-78
2024/03/07 07:22:40;;;;;;;;;;;;;;;;;;106653;1253;60775;-79
2024/03/07 07:25:13;;;;;;;58.10;30.40;;;;;;;;;;107493;1256;61243;-85
2024/03/07 07:27:59;;;;;;;56.80;27.50;;;;;;;;;;107369;1256;61156;-86
2024/03/07 07:30:27;;;;;;;71.00;32.10;;;;;;;;;;107459;1251;63211;-86
2024/03/07 07:32:53;;;;;;;82.40;36.30;;;;;;;;;;107437;1256;61165;-85
2024/03/07 07:35:20;;;;;;;92.70;40.70;;;;;;;;;;107351;1254;61210;-85
2024/03/07 07:37:47;;;;;;;79.60;37.50;;;;;;;;;;107282;1253;61160;-78
2024/03/07 07:40:18;;;;;;;71.90;31.50;;;;;;;;;;109414;1252;58899;-78
2024/03/07 07:42:46;;;;;;;54.00;22.40;;;;;;;;;;109407;1251;60756;-79
2024/03/07 07:45:13;;;;;;;108.80;55.30;;;;;;;;;;109396;1253;58903;-85
2024/03/07 07:47:41;;;;;;;74.90;33.70;;;;;;;;;;107729;1253;59763;-86
2024/03/07 07:50:12;;;;;;;71.50;34.40;;;;;;;;;;107276;1253;61260;-78
2024/03/07 07:52:47;;;;;;;71.10;31.40;;;;;;;;;;106394;1259;61237;-78
2024/03/07 07:55:14;;;;;;;63.60;27.70;;;;;;;;;;106782;1253;61403;-86
2024/03/07 07:57:44;;;;;;;68.90;33.40;;;;;;;;;;107318;1256;61244;-86
2024/03/07 08:00:23;;;;;;;74.50;34.40;;;;;;;;;;107304;1251;61144;-78
2024/03/07 08:02:54;;;;;;;68.20;31.10;;;;;;;;;;107165;1251;61345;-85
2024/03/07 08:05:22;;;;;;;68.50;28.10;;;;;;;;;;107364;1253;61221;-78
2024/03/07 08:07:50;;;;;;;65.60;29.70;;;;;;;;;;106690;1251;63287;-85
2024/03/07 08:10:17;;;;;;;63.30;29.00;;;;;;;;;;107374;1253;61100;-78
2024/03/07 08:12:44;;;;;;;194.60;95.40;;;;;;;;;;106681;1254;61205;-78
2024/03/07 08:15:13;;;;;;;193.10;83.60;;;;;;;;;;106464;1254;61209;-85
2024/03/07 08:17:40;;;;;;;128.00;56.50;;;;;;;;;;107149;1254;61366;-78
2024/03/07 08:20:11;;;;;;;69.90;33.30;;;;;;;;;;107201;1251;60418;-85
2024/03/07 08:22:40;;;;;;;85.80;39.40;;;;;;;;;;107547;1254;61368;-86
2024/03/07 08:25:17;;;;;;;102.90;43.50;;;;;;;;;;109411;1253;61175;-86
2024/03/07 08:27:45;;;;;;;98.80;45.70;;;;;;;;;;108611;1253;61336;-78
2024/03/07 08:30:15;;;;;;;158.80;69.50;;;;;;;;;;106602;1256;61209;-78
2024/03/07 08:32:42;;;;;;;73.40;37.30;;;;;;;;;;106440;1253;61524;-78
2024/03/07 08:35:09;;;;;;;304.40;137.90;;;;;;;;;;107392;1253;61096;-85
2024/03/07 08:37:36;;;;;;;242.30;113.00;;;;;;;;;;107116;1259;61229;-78
2024/03/07 08:40:06;;;;;;;122.90;58.40;;;;;;;;;;107333;1253;61116;-78
2024/03/07 08:42:33;;;;;;;160.40;62.70;;;;;;;;;;106696;1256;61224;-85
2024/03/07 08:45:01;;;;;;;223.00;86.40;;;;;;;;;;107555;1253;62905;-78
2024/03/07 08:47:28;;;;;;;110.50;47.30;;;;;;;;;;106715;1256;61283;-78
2024/03/07 08:49:54;;;;;;;229.00;87.90;;;;;;;;;;106610;1255;61356;-85
2024/03/07 08:52:21;;;;;;;479.30;191.20;;;;;;;;;;107365;1253;61343;-85
2024/03/07 08:54:48;;;;;;;224.60;91.10;;;;;;;;;;107280;1253;61128;-78
2024/03/07 08:57:17;;;;;;;78.00;36.50;;;;;;;;;;108791;1255;61615;-79
2024/03/07 08:59:43;;;;;;;101.60;41.90;;;;;;;;;;109439;1252;58903;-78
2024/03/07 09:02:11;;;;;;;153.10;60.70;;;;;;;;;;109381;1252;59614;-79
2024/03/07 09:04:38;;;;;;;174.60;79.20;;;;;;;;;;109398;1253;59922;-78
2024/03/07 09:07:06;;;;;;;110.50;48.20;;;;;;;;;;109317;1252;58960;-85
2024/03/07 09:09:33;;;;;;;90.60;41.60;;;;;;;;;;109429;1252;61900;-78
2024/03/07 09:12:02;;;;;;;129.80;70.30;;;;;;;;;;109379;1253;59603;-78
2024/03/07 09:14:29;;;;;;;91.00;47.30;;;;;;;;;;109387;1251;61021;-78
2024/03/07 09:16:56;;;;;;;79.10;40.20;;;;;;;;;;109370;1253;59354;-78
2024/03/07 09:19:24;;;;;;;77.50;41.50;;;;;;;;;;109453;1252;58882;-78
2024/03/07 09:21:53;;;;;;;71.50;35.90;;;;;;;;;;109409;1252;60752;-85
2024/03/07 09:24:22;;;;;;;67.40;32.00;;;;;;;;;;109345;1253;59239;-78
2024/03/07 09:26:49;;;;;;;68.30;32.10;;;;;;;;;;109355;1252;59662;-78
2024/03/07 09:29:19;;;;;;;84.80;42.10;;;;;;;;;;109411;1251;58938;-78
2024/03/07 09:31:46;;;;;;;71.50;34.20;;;;;;;;;;109474;1251;58815;-78
2024/03/07 09:34:13;;;;;;;84.30;41.00;;;;;;;;;;109422;1253;62898;-78
2024/03/07 09:36:41;;;;;;;73.90;34.80;;;;;;;;;;109358;1251;59004;-86
2024/03/07 09:39:08;;;;;;;59.00;28.60;;;;;;;;;;109247;1253;60659;-86
2024/03/07 09:41:36;;;;;;;59.60;32.10;;;;;;;;;;109294;1253;59004;-85
2024/03/07 09:44:03;;;;;;;61.20;28.50;;;;;;;;;;109355;1254;58984;-85
2024/03/07 09:46:30;;;;;;;83.80;34.30;;;;;;;;;;109432;1252;61947;-85
2024/03/07 09:49:00;;;;;;;76.10;31.10;;;;;;;;;;109318;1252;58955;-78
2024/03/07 09:51:27;;;;;;;74.60;32.80;;;;;;;;;;109408;1253;60174;-78
2024/03/07 09:53:53;;;;;;;73.50;31.30;;;;;;;;;;109290;1252;60209;-85
2024/03/07 09:56:20;;;;;;;52.80;25.70;;;;;;;;;;108574;1254;61228;-78
2024/03/07 09:58:50;;;;;;;67.40;29.10;;;;;;;;;;107444;1253;61208;-81
2024/03/07 10:01:20;;;;;;;75.70;32.40;;;;;;;;;;107444;1253;61320;-80
2024/03/07 10:03:47;;;;;;;72.60;32.60;;;;;;;;;;106714;1253;61369;-77
2024/03/07 10:06:14;;;;;;;65.50;30.10;;;;;;;;;;106607;1256;61138;-80
2024/03/07 10:08:42;;;;;;;60.60;27.30;;;;;;;;;;106648;1256;61209;-80
2024/03/07 10:11:09;;;;;;;66.30;28.70;;;;;;;;;;106506;1251;62535;-78
2024/03/07 10:13:35;;;;;;;57.10;27.80;;;;;;;;;;107653;1254;61272;-72
2024/03/07 10:16:02;;;;;;;58.70;26.00;;;;;;;;;;106420;1253;61250;-78
2024/03/07 10:18:29;;;;;;;60.70;28.10;;;;;;;;;;106590;1251;61319;-71
2024/03/07 10:20:55;;;;;;;53.50;25.80;;;;;;;;;;106658;1253;61267;-77
2024/03/07 10:23:22;;;;;;;57.00;26.80;;;;;;;;;;106655;1251;61373;-79
2024/03/07 10:25:49;;;;;;;63.90;29.10;;;;;;;;;;106439;1253;61336;-79
2024/03/07 10:28:20;;;;;;;59.00;28.60;;;;;;;;;;106565;1254;60106;-79
2024/03/07 10:30:47;;;;;;;57.40;24.10;;;;;;;;;;106594;1256;61106;-79
2024/03/07 10:33:14;;;;;;;57.10;24.50;;;;;;;;;;106488;1253;61270;-79
2024/03/07 10:35:41;;;;;;;59.40;26.80;;;;;;;;;;106631;1253;62837;-78
2024/03/07 10:38:07;;;;;;;70.10;28.80;;;;;;;;;;106648;1251;61247;-79
2024/03/07 10:40:40;;;;;;;61.00;27.30;;;;;;;;;;106411;1253;61238;-78
2024/03/07 10:43:10;;;;;;;64.90;28.70;;;;;;;;;;106528;1257;61330;-78
2024/03/07 10:45:56;;;;;;;64.10;28.30;;;;;;;;;;106981;1253;61256;-79
2024/03/07 10:48:22;;;;;;;60.70;28.40;;;;;;;;;;109255;1253;63052;-80
2024/03/07 10:50:55;;;;;;;52.60;28.20;;;;;;;;;;109379;1252;58915;-78
2024/03/07 10:53:25;;;;;;;65.30;29.20;;;;;;;;;;109304;1252;59717;-80
2024/03/07 10:55:52;;;;;;;63.90;30.50;;;;;;;;;;109414;1251;59011;-78
2024/03/07 10:58:33;;;;;;;62.30;28.70;;;;;;;;;;109414;1253;59607;-81
2024/03/07 11:01:00;;;;;;;80.80;35.40;;;;;;;;;;109336;1251;61960;-78
2024/03/07 11:03:27;;;;;;;69.10;30.90;;;;;;;;;;107429;1253;61101;-77
2024/03/07 11:05:53;;;;;;;59.50;28.20;;;;;;;;;;106437;1259;61094;-77
2024/03/07 11:08:20;;;;;;;67.20;28.90;;;;;;;;;;106553;1251;61157;-78
2024/03/07 11:10:47;;;;;;;63.20;28.20;;;;;;;;;;106667;1251;61128;-78
2024/03/07 11:13:13;;;;;;;57.80;28.60;;;;;;;;;;106479;1253;61279;-78
2024/03/07 11:15:41;;;;;;;62.70;32.10;;;;;;;;;;106697;1255;61165;-77
2024/03/07 11:18:09;;;;;;;70.70;31.70;;;;;;;;;;106505;1253;61168;-79
2024/03/07 11:20:36;;;;;;;60.00;27.30;;;;;;;;;;106388;1253;61026;-80
2024/03/07 11:23:21;;;;;;;58.10;26.30;;;;;;;;;;106618;1253;61322;-79
2024/03/07 11:25:48;;;;;;;54.70;27.20;;;;;;;;;;106639;1253;61225;-78
2024/03/07 11:28:20;;;;;;;62.20;27.30;;;;;;;;;;106388;1254;61182;-78
2024/03/07 11:30:47;;;;;;;55.40;26.80;;;;;;;;;;106580;1254;61286;-77
2024/03/07 11:33:14;;;;;;;63.40;30.30;;;;;;;;;;108035;1252;61162;-77
2024/03/07 11:35:40;;;;;;;66.10;28.70;;;;;;;;;;109414;1252;59172;-78
2024/03/07 11:38:11;;;;;;;60.80;30.50;;;;;;;;;;109225;1251;60748;-77
2024/03/07 11:40:37;;;;;;;58.60;27.80;;;;;;;;;;109396;1251;59156;-78
2024/03/07 11:43:07;;;;;;;63.60;31.30;;;;;;;;;;109418;1251;59092;-78
2024/03/07 11:45:38;;;;;;;61.60;29.10;;;;;;;;;;109422;1252;59993;-79
2024/03/07 11:48:08;;;;;;;66.10;31.70;;;;;;;;;;109293;1253;59266;-80
2024/03/07 11:50:41;;;;;;;59.30;27.80;;;;;;;;;;109423;1252;61992;-84
2024/03/07 11:53:08;;;;;;;55.70;29.10;;;;;;;;;;109229;1253;58867;-84
2024/03/07 11:55:50;;;;;;;81.40;33.50;;;;;;;;;;109437;1252;59628;-77
2024/03/07 11:58:17;;;;;;;67.40;28.90;;;;;;;;;;109295;1252;59195;-78
2024/03/07 12:00:44;;;;;;;58.00;28.10;;;;;;;;;;109444;1253;58920;-84
2024/03/07 12:03:16;;;;;;;63.70;31.30;;;;;;;;;;109450;1253;61905;-84
2024/03/07 12:05:43;;;;;;;65.50;32.50;;;;;;;;;;109425;1251;58973;-78
2024/03/07 12:08:10;;;;;;;66.10;35.50;;;;;;;;;;109269;1252;59319;-84
2024/03/07 12:10:43;;;;;;;77.70;35.20;;;;;;;;;;109302;1251;59270;-84
2024/03/07 12:13:11;;;;;;;52.80;26.30;;;;;;;;;;109369;1252;58856;-84
2024/03/07 12:15:38;;;;;;;64.10;28.70;;;;;;;;;;109441;1253;61874;-84
2024/03/07 12:18:08;;;;;;;59.80;26.70;;;;;;;;;;109310;1253;59343;-78
2024/03/07 12:20:38;;;;;;;64.10;28.40;;;;;;;;;;109182;1253;59840;-78
2024/03/07 12:23:08;;;;;;;55.80;26.50;;;;;;;;;;108382;1252;59741;-84
2024/03/07 12:25:38;;;;;;;61.10;26.40;;;;;;;;;;106557;1251;61391;-77
2024/03/07 12:28:06;;;;;;;71.80;31.40;;;;;;;;;;106564;1251;61231;-77
2024/03/07 12:30:33;;;;;;;64.30;30.50;;;;;;;;;;106612;1256;61011;-77
2024/03/07 12:33:00;;;;;;;79.90;39.20;;;;;;;;;;106613;1251;61231;-77
2024/03/07 12:35:27;;;;;;;72.60;31.30;;;;;;;;;;106722;1254;61164;-78
2024/03/07 12:37:54;;;;;;;56.60;24.90;;;;;;;;;;106506;1253;61351;-77
2024/03/07 12:40:23;;;;;;;55.10;28.80;;;;;;;;;;106641;1255;61448;-85
2024/03/07 12:42:53;;;;;;;77.40;36.80;;;;;;;;;;107369;1251;61365;-78
2024/03/07 12:45:19;;;;;;;98.10;49.90;;;;;;;;;;106670;1251;61257;-78
2024/03/07 12:47:52;;;;;;;78.60;39.30;;;;;;;;;;106694;1253;59487;-78
2024/03/07 12:50:21;;;;;;;73.60;34.60;;;;;;;;;;106638;1256;61244;-85
2024/03/07 12:52:52;;;;;;;56.50;28.30;;;;;;;;;;107406;1251;62079;-78
2024/03/07 12:55:18;;;;;;;65.40;34.20;;;;;;;;;;106561;1256;61234;-78
2024/03/07 12:57:45;;;;;;;68.20;31.20;;;;;;;;;;107207;1253;61285;-79
2024/03/07 13:00:18;;;;;;;61.10;30.70;;;;;;;;;;107232;1251;61426;-84
2024/03/07 13:02:48;;;;;;;69.10;31.80;;;;;;;;;;107044;1253;59331;-85
2024/03/07 13:05:25;;;;;;;77.60;33.80;;;;;;;;;;107330;1251;61882;-85
2024/03/07 13:07:52;;;;;;;68.40;30.40;;;;;;;;;;107376;1251;61209;-79
2024/03/07 13:10:19;;;;;;;62.20;30.90;;;;;;;;;;109416;1253;59135;-79
2024/03/07 13:12:45;;;;;;;68.90;32.40;;;;;;;;;;109313;1252;59405;-85
2024/03/07 13:15:12;;;;;;;66.40;29.80;;;;;;;;;;109323;1256;58810;-85
2024/03/07 13:17:38;;;;;;;74.10;37.10;;;;;;;;;;108938;1253;61237;-79
2024/03/07 13:20:11;;;;;;;73.00;35.80;;;;;;;;;;106594;1253;59462;-79
2024/03/07 13:22:42;;;;;;;62.80;33.80;;;;;;;;;;107214;1253;62224;-79
2024/03/07 13:25:25;;;;;;;76.40;32.10;;;;;;;;;;109365;1251;59078;-85
2024/03/07 13:28:00;;;;;;;75.40;26.60;;;;;;;;;;109408;1251;59225;-79
2024/03/07 13:30:27;;;;;;;78.60;34.80;;;;;;;;;;109432;1252;61664;-79
2024/03/07 13:32:56;;;;;;;65.20;31.30;;;;;;;;;;109463;1254;59411;-79
2024/03/07 13:35:23;;;;;;;60.10;28.40;;;;;;;;;;109377;1253;60353;-85
2024/03/07 13:37:49;;;;;;;67.00;31.80;;;;;;;;;;109407;1256;59108;-85
2024/03/07 13:40:25;;;;;;;65.80;29.10;;;;;;;;;;109456;1253;59183;-85
2024/03/07 13:42:55;;;;;;;60.00;30.40;;;;;;;;;;109438;1252;63072;-85
2024/03/07 13:45:30;;;;;;;60.50;27.30;;;;;;;;;;109483;1252;59076;-86
2024/03/07 13:47:58;;;;;;;69.90;31.70;;;;;;;;;;109405;1252;60674;-85
2024/03/07 13:50:25;;;;;;;67.30;31.30;;;;;;;;;;107717;1252;61600;-84
2024/03/07 13:53:13;;;;;;;69.80;29.70;;;;;;;;;;107326;1256;61244;-84
2024/03/07 13:56:02;;;;;;;72.70;32.80;;;;;;;;;;107512;1253;62282;-79
2024/03/07 13:58:28;;;;;;;;;;;;;;;;;;107453;1252;61177;-79
2024/03/07 14:01:20;;;;;;;61.60;25.60;;;;;;;;;;109469;1252;58950;-86
2024/03/07 14:03:52;;;;;;;63.50;28.20;;;;;;;;;;107088;1252;61306;-85
2024/03/07 14:06:49;;;;;;;64.00;28.70;;;;;;;;;;107368;1253;61349;-85
2024/03/07 14:09:25;;;;;;;64.40;29.60;;;;;;;;;;107315;1253;63372;-79
2024/03/07 14:12:10;;;;;;;71.60;33.90;;;;;;;;;;107379;1254;61266;-85
2024/03/07 14:14:55;;;;;;;55.10;26.80;;;;;;;;;;107220;1252;61352;-84